createdAt,value
2018-07-24T00:00:10.600Z,81.90
2018-07-24T00:02:39.754Z,82.00
2018-07-24T00:05:08.768Z,82.00
2018-07-24T00:07:37.921Z,82.30
2018-07-24T00:10:06.794Z,82.60
2018-07-24T00:12:36.030Z,82.60
2018-07-24T00:15:06.482Z,82.80
2018-07-24T00:17:35.979Z,82.90
2018-07-24T00:20:06.167Z,83.10
2018-07-24T00:22:35.216Z,83.20
2018-07-24T00:25:05.584Z,83.20
2018-07-24T00:27:34.651Z,83.10
2018-07-24T00:30:03.796Z,83.20
2018-07-24T00:32:33.046Z,83.20
2018-07-24T00:35:02.113Z,83.10
2018-07-24T00:37:31.167Z,83.30
2018-07-24T00:40:01.353Z,83.40
2018-07-24T00:42:30.804Z,83.70
2018-07-24T00:44:59.961Z,83.80
2018-07-24T00:47:29.343Z,83.60
2018-07-24T00:49:59.035Z,83.70
2018-07-24T00:52:28.266Z,83.90
2018-07-24T00:54:57.473Z,84.00
2018-07-24T00:57:26.811Z,83.70
2018-07-24T00:59:55.888Z,83.70
2018-07-24T01:02:24.835Z,83.80
2018-07-24T01:04:54.103Z,83.70
2018-07-24T01:07:23.151Z,84.00
2018-07-24T01:09:57.649Z,84.00
2018-07-24T01:12:27.049Z,84.20
2018-07-24T01:14:57.264Z,84.20
2018-07-24T01:17:26.289Z,84.20
2018-07-24T01:19:55.341Z,84.20
2018-07-24T01:22:24.611Z,84.20
2018-07-24T01:24:54.962Z,84.20
2018-07-24T01:27:23.835Z,84.30
2018-07-24T01:29:53.792Z,84.50
2018-07-24T01:32:22.894Z,84.50
2018-07-24T01:34:51.862Z,84.30
2018-07-24T01:37:20.977Z,84.30
2018-07-24T01:39:49.907Z,84.00
2018-07-24T01:42:18.846Z,83.80
2018-07-24T01:44:48.072Z,83.80
2018-07-24T01:47:16.898Z,83.50
2018-07-24T01:49:45.805Z,83.60
2018-07-24T01:52:14.742Z,83.40
2018-07-24T01:54:45.692Z,83.10
2018-07-24T01:57:14.779Z,83.30
2018-07-24T01:59:43.828Z,82.80
2018-07-24T02:02:12.958Z,82.70
2018-07-24T02:04:41.941Z,83.00
2018-07-24T02:07:10.880Z,82.80
2018-07-24T02:09:40.086Z,82.90
2018-07-24T02:12:09.232Z,82.80
2018-07-24T02:14:38.372Z,82.80
2018-07-24T02:17:07.427Z,82.70
2018-07-24T02:19:36.486Z,82.80
2018-07-24T02:22:05.521Z,83.10
2018-07-24T02:24:34.761Z,83.00
2018-07-24T02:27:06.483Z,83.20
2018-07-24T02:29:35.330Z,83.10
2018-07-24T02:32:04.137Z,83.30
2018-07-24T02:34:33.286Z,83.40
2018-07-24T02:37:02.262Z,83.50
2018-07-24T02:39:31.334Z,83.60
2018-07-24T02:42:00.401Z,83.60
2018-07-24T02:44:29.503Z,83.70
2018-07-24T02:46:58.591Z,83.70
2018-07-24T02:49:27.578Z,83.90
2018-07-24T02:51:56.607Z,84.00
2018-07-24T02:54:25.562Z,84.00
2018-07-24T02:56:54.762Z,83.70
2018-07-24T02:59:23.917Z,83.70
2018-07-24T03:01:52.958Z,83.70
2018-07-24T03:04:21.998Z,83.50
2018-07-24T03:06:50.970Z,83.70
2018-07-24T03:09:20.057Z,83.70
2018-07-24T03:11:49.037Z,84.10
2018-07-24T03:14:18.243Z,84.30
2018-07-24T03:16:47.245Z,84.00
2018-07-24T03:19:17.418Z,84.20
2018-07-24T03:21:47.420Z,84.40
2018-07-24T03:24:16.505Z,84.30
2018-07-24T03:26:45.413Z,84.20
2018-07-24T03:29:14.356Z,84.20
2018-07-24T03:31:43.336Z,84.10
2018-07-24T03:34:12.439Z,84.00
2018-07-24T03:36:41.511Z,84.10
2018-07-24T03:39:12.277Z,84.00
2018-07-24T03:41:41.447Z,83.90
2018-07-24T03:44:10.744Z,83.60
2018-07-24T03:46:39.575Z,83.60
2018-07-24T03:49:08.564Z,83.80
2018-07-24T03:51:37.522Z,83.70
2018-07-24T03:54:06.572Z,83.90
2018-07-24T03:56:35.502Z,83.90
2018-07-24T03:59:04.503Z,84.00
2018-07-24T04:01:33.466Z,84.10
2018-07-24T04:04:02.385Z,84.20
2018-07-24T04:06:31.386Z,84.10
2018-07-24T04:09:00.259Z,84.20
2018-07-24T04:11:29.396Z,84.20
2018-07-24T04:13:58.294Z,84.30
2018-07-24T04:16:27.375Z,84.40
2018-07-24T04:18:56.379Z,84.50
2018-07-24T04:21:25.327Z,84.60
2018-07-24T04:23:54.217Z,84.20
2018-07-24T04:26:23.124Z,84.00
2018-07-24T04:28:52.030Z,84.00
2018-07-24T04:31:21.064Z,84.00
2018-07-24T04:33:50.109Z,83.90
2018-07-24T04:36:19.052Z,83.90
2018-07-24T04:38:48.048Z,83.90
2018-07-24T04:41:17.204Z,84.00
2018-07-24T04:43:46.170Z,84.00
2018-07-24T04:46:15.126Z,83.90
2018-07-24T04:48:43.972Z,83.90
2018-07-24T04:51:12.926Z,84.00
2018-07-24T04:53:41.798Z,83.90
2018-07-24T04:56:10.708Z,84.20
2018-07-24T04:58:39.804Z,84.20
2018-07-24T05:01:08.615Z,84.40
2018-07-24T05:03:37.452Z,84.60
2018-07-24T05:06:06.316Z,84.70
2018-07-24T05:08:36.427Z,84.80
2018-07-24T05:11:06.357Z,84.90
2018-07-24T05:13:35.759Z,85.10
2018-07-24T05:16:05.886Z,85.10
2018-07-24T05:18:34.947Z,85.20
2018-07-24T05:21:03.947Z,85.20
2018-07-24T05:23:33.178Z,85.10
2018-07-24T05:26:02.201Z,84.90
2018-07-24T05:28:31.353Z,84.90
2018-07-24T05:31:00.459Z,84.80
2018-07-24T05:33:29.420Z,84.80
2018-07-24T05:35:58.444Z,84.90
2018-07-24T05:38:27.540Z,85.00
2018-07-24T05:40:56.536Z,84.60
2018-07-24T05:43:25.603Z,84.90
2018-07-24T05:45:55.319Z,84.90
2018-07-24T05:48:24.006Z,84.70
2018-07-24T05:50:53.236Z,84.60
2018-07-24T05:53:29.033Z,84.50
2018-07-24T05:55:57.850Z,84.20
2018-07-24T05:58:26.650Z,84.10
2018-07-24T06:00:55.569Z,83.80
2018-07-24T06:03:25.260Z,83.70
2018-07-24T06:05:54.184Z,83.60
2018-07-24T06:08:25.969Z,82.80
2018-07-24T06:10:54.902Z,81.20
2018-07-24T06:13:23.708Z,80.50
2018-07-24T06:15:53.326Z,82.30
2018-07-24T06:18:22.301Z,80.90
2018-07-24T06:20:51.350Z,80.90
2018-07-24T06:23:20.237Z,80.80
2018-07-24T06:25:50.923Z,80.40
2018-07-24T06:28:21.216Z,79.50
2018-07-24T06:30:50.762Z,79.90
2018-07-24T06:33:19.616Z,78.50
2018-07-24T06:35:48.363Z,78.50
2018-07-24T06:38:17.189Z,78.50
2018-07-24T06:40:45.967Z,77.80
2018-07-24T06:43:14.841Z,77.70
2018-07-24T06:45:50.503Z,78.30
2018-07-24T06:48:19.350Z,78.30
2018-07-24T06:50:54.977Z,78.10
2018-07-24T06:53:23.928Z,77.50
2018-07-24T06:55:52.777Z,77.80
2018-07-24T06:58:21.702Z,78.00
2018-07-24T07:00:50.567Z,77.70
2018-07-24T07:03:19.636Z,77.50
2018-07-24T07:05:48.654Z,77.50
2018-07-24T07:08:17.410Z,77.30
2018-07-24T07:10:46.460Z,77.20
2018-07-24T07:13:15.320Z,77.40
2018-07-24T07:15:44.344Z,77.40
2018-07-24T07:18:13.350Z,76.80
2018-07-24T07:20:42.272Z,76.90
2018-07-24T07:23:11.260Z,77.00
2018-07-24T07:25:40.279Z,76.40
2018-07-24T07:28:09.234Z,76.70
2018-07-24T07:30:38.344Z,76.60
2018-07-24T07:33:07.370Z,76.20
2018-07-24T07:35:36.250Z,76.20
2018-07-24T07:38:05.266Z,75.70
2018-07-24T07:40:34.113Z,75.80
2018-07-24T07:43:03.343Z,75.90
2018-07-24T07:45:32.643Z,75.70
2018-07-24T07:48:01.558Z,75.50
2018-07-24T07:50:30.907Z,75.50
2018-07-24T07:52:59.848Z,75.20
2018-07-24T07:55:28.623Z,75.40
2018-07-24T07:57:57.449Z,75.30
2018-07-24T08:00:26.178Z,75.20
2018-07-24T08:02:54.974Z,75.50
2018-07-24T08:05:23.728Z,75.20
2018-07-24T08:07:52.749Z,74.80
2018-07-24T08:10:22.582Z,75.10
2018-07-24T08:12:52.943Z,74.60
2018-07-24T08:15:21.820Z,74.80
2018-07-24T08:17:50.567Z,74.80
2018-07-24T08:20:19.332Z,74.40
2018-07-24T08:22:48.245Z,74.30
2018-07-24T08:25:17.151Z,74.70
2018-07-24T08:27:46.013Z,74.30
2018-07-24T08:30:14.738Z,74.10
2018-07-24T08:32:43.470Z,73.90
2018-07-24T08:35:12.187Z,74.10
2018-07-24T08:37:40.938Z,73.80
2018-07-24T08:40:09.671Z,73.50
2018-07-24T08:42:38.718Z,72.70
2018-07-24T08:45:07.629Z,72.70
2018-07-24T08:47:38.341Z,72.30
2018-07-24T08:50:07.172Z,72.70
2018-07-24T08:52:36.023Z,72.40
2018-07-24T08:55:05.255Z,72.40
2018-07-24T08:57:33.819Z,72.00
2018-07-24T09:00:02.608Z,71.20
2018-07-24T09:02:31.642Z,71.40
2018-07-24T09:05:00.519Z,71.40
2018-07-24T09:07:29.277Z,70.50
2018-07-24T09:09:58.080Z,68.70
2018-07-24T09:12:26.938Z,69.30
2018-07-24T09:14:55.838Z,69.10
2018-07-24T09:17:24.747Z,69.60
2018-07-24T09:19:53.536Z,68.50
2018-07-24T09:22:22.281Z,69.40
2018-07-24T09:24:51.195Z,69.20
2018-07-24T09:27:20.100Z,69.30
2018-07-24T09:29:49.131Z,69.50
2018-07-24T09:32:20.729Z,68.70
2018-07-24T09:34:49.434Z,69.00
2018-07-24T09:37:18.426Z,68.90
2018-07-24T09:39:47.289Z,69.40
2018-07-24T09:42:16.230Z,69.70
2018-07-24T09:44:45.032Z,69.80
2018-07-24T09:47:13.994Z,69.60
2018-07-24T09:49:43.059Z,69.40
2018-07-24T09:52:12.947Z,69.10
2018-07-24T09:54:42.085Z,67.80
2018-07-24T09:57:11.045Z,67.00
2018-07-24T09:59:40.354Z,67.00
2018-07-24T10:02:09.248Z,67.00
2018-07-24T10:04:38.302Z,67.50
2018-07-24T10:07:07.186Z,67.70
2018-07-24T10:09:36.158Z,67.90
2018-07-24T10:12:04.947Z,67.90
2018-07-24T10:14:34.465Z,67.90
2018-07-24T10:17:03.396Z,68.00
2018-07-24T10:19:32.473Z,68.20
2018-07-24T10:22:01.631Z,68.30
2018-07-24T10:24:33.064Z,68.10
2018-07-24T10:27:01.978Z,68.10
2018-07-24T10:29:30.851Z,68.50
2018-07-24T10:34:07.251Z,68.80
2018-07-24T10:36:36.407Z,69.20
2018-07-24T10:39:08.730Z,69.20
2018-07-24T10:41:38.414Z,69.20
2018-07-24T10:44:07.387Z,68.70
2018-07-24T10:46:36.795Z,68.10
2018-07-24T10:49:05.880Z,67.00
2018-07-24T10:51:35.545Z,66.70
2018-07-24T10:54:04.407Z,66.70
2018-07-24T10:56:33.795Z,65.60
2018-07-24T10:59:03.460Z,65.00
2018-07-24T11:01:32.540Z,65.30
2018-07-24T11:04:01.612Z,64.90
2018-07-24T11:06:30.281Z,65.40
2018-07-24T11:08:59.236Z,66.10
2018-07-24T11:11:28.021Z,66.50
2018-07-24T11:13:59.099Z,65.60
2018-07-24T11:16:27.902Z,65.50
2018-07-24T11:18:56.651Z,66.00
2018-07-24T11:21:26.449Z,65.70
2018-07-24T11:23:55.240Z,65.50
2018-07-24T11:26:24.249Z,65.60
2018-07-24T11:28:53.677Z,65.50
2018-07-24T11:31:22.951Z,65.00
2018-07-24T11:33:52.679Z,64.90
2018-07-24T11:36:21.650Z,65.00
2018-07-24T11:38:50.537Z,64.20
2018-07-24T11:41:19.453Z,64.60
2018-07-24T11:43:48.239Z,64.60
2018-07-24T11:46:17.052Z,64.00
2018-07-24T11:48:46.240Z,64.80
2018-07-24T11:51:17.110Z,65.30
2018-07-24T11:53:46.000Z,65.50
2018-07-24T11:56:14.744Z,65.40
2018-07-24T11:58:43.677Z,65.40
2018-07-24T12:01:12.462Z,65.70
2018-07-24T12:03:41.356Z,65.90
2018-07-24T12:06:10.390Z,65.70
2018-07-24T12:08:39.141Z,66.10
2018-07-24T12:11:07.883Z,65.60
2018-07-24T12:13:36.932Z,65.10
2018-07-24T12:16:07.657Z,64.90
2018-07-24T12:18:37.863Z,63.80
2018-07-24T12:21:06.793Z,63.40
2018-07-24T12:23:38.051Z,63.40
2018-07-24T12:26:07.023Z,63.70
2018-07-24T12:28:38.298Z,63.00
2018-07-24T12:31:07.263Z,63.70
2018-07-24T12:33:36.145Z,63.80
2018-07-24T12:36:05.088Z,64.00
2018-07-24T12:38:35.301Z,63.50
2018-07-24T12:41:04.284Z,63.60
2018-07-24T12:43:33.785Z,63.60
2018-07-24T12:46:02.513Z,62.60
2018-07-24T12:48:32.462Z,62.40
2018-07-24T12:51:01.567Z,62.40
2018-07-24T12:53:30.440Z,62.70
2018-07-24T12:55:59.214Z,62.80
2018-07-24T12:58:28.146Z,63.20
2018-07-24T13:00:57.315Z,63.50
2018-07-24T13:03:26.118Z,63.30
2018-07-24T13:05:54.993Z,62.70
2018-07-24T13:08:23.860Z,62.80
2018-07-24T13:10:52.832Z,63.00
2018-07-24T13:13:22.117Z,62.90
2018-07-24T13:16:54.974Z,62.80
2018-07-24T13:19:23.911Z,62.70
2018-07-24T13:21:53.665Z,62.90
2018-07-24T13:24:22.622Z,62.90
2018-07-24T13:26:54.082Z,62.60
2018-07-24T13:29:22.885Z,62.70
2018-07-24T13:31:51.854Z,62.70
2018-07-24T13:34:21.219Z,62.60
2018-07-24T13:36:50.131Z,62.10
2018-07-24T13:39:19.803Z,62.10
2018-07-24T13:41:51.022Z,62.10
2018-07-24T13:44:19.912Z,61.70
2018-07-24T13:46:53.017Z,61.80
2018-07-24T13:49:22.035Z,61.70
2018-07-24T13:51:51.445Z,61.50
2018-07-24T13:54:20.712Z,61.30
2018-07-24T13:56:49.526Z,61.60
2018-07-24T13:59:18.438Z,61.60
2018-07-24T14:02:50.047Z,61.60
2018-07-24T14:05:18.894Z,61.60
2018-07-24T14:07:47.764Z,61.50
2018-07-24T14:10:17.130Z,61.10
2018-07-24T14:12:46.252Z,61.30
2018-07-24T14:15:15.180Z,61.30
2018-07-24T14:17:44.389Z,61.20
2018-07-24T14:20:13.131Z,61.30
2018-07-24T14:22:42.516Z,61.10
2018-07-24T14:25:11.478Z,61.00
2018-07-24T14:27:40.380Z,60.10
2018-07-24T14:30:11.865Z,59.80
2018-07-24T14:32:41.022Z,59.40
2018-07-24T14:35:09.994Z,59.20
2018-07-24T14:37:40.233Z,59.40
2018-07-24T14:40:09.224Z,59.50
2018-07-24T14:42:38.133Z,59.50
2018-07-24T14:45:07.269Z,59.20
2018-07-24T14:47:36.070Z,59.10
2018-07-24T14:50:04.912Z,58.80
2018-07-24T14:52:33.828Z,58.70
2018-07-24T14:55:02.875Z,59.30
2018-07-24T14:57:32.691Z,59.00
2018-07-24T15:00:01.965Z,58.80
2018-07-24T15:02:30.669Z,59.10
2018-07-24T15:04:59.590Z,59.00
2018-07-24T15:07:32.296Z,58.80
2018-07-24T15:10:01.222Z,58.80
2018-07-24T15:12:30.281Z,58.80
2018-07-24T15:14:59.836Z,58.90
2018-07-24T15:17:28.690Z,58.20
2018-07-24T15:19:57.585Z,58.40
2018-07-24T15:22:27.067Z,58.50
2018-07-24T15:24:55.891Z,58.10
2018-07-24T15:27:27.110Z,58.50
2018-07-24T15:29:56.609Z,58.50
2018-07-24T15:32:25.446Z,58.90
2018-07-24T15:34:55.162Z,58.60
2018-07-24T15:37:24.675Z,58.40
2018-07-24T15:39:53.596Z,58.20
2018-07-24T15:42:23.142Z,57.70
2018-07-24T15:44:51.897Z,58.20
2018-07-24T15:47:21.256Z,59.10
2018-07-24T15:49:49.999Z,58.40
2018-07-24T15:52:18.911Z,57.90
2018-07-24T15:54:49.234Z,57.80
2018-07-24T15:57:18.208Z,57.90
2018-07-24T15:59:47.289Z,57.70
2018-07-24T16:02:16.030Z,57.10
2018-07-24T16:04:46.185Z,57.40
2018-07-24T16:07:16.930Z,57.00
2018-07-24T16:09:45.797Z,57.20
2018-07-24T16:12:20.785Z,56.70
2018-07-24T16:14:51.099Z,56.90
2018-07-24T16:17:21.130Z,56.70
2018-07-24T16:19:50.130Z,56.50
2018-07-24T16:22:19.246Z,56.30
2018-07-24T16:24:48.336Z,56.50
2018-07-24T16:27:19.032Z,56.30
2018-07-24T16:29:47.981Z,56.50
2018-07-24T16:32:17.009Z,56.50
2018-07-24T16:34:45.837Z,56.60
2018-07-24T16:37:14.942Z,56.30
2018-07-24T16:39:43.766Z,55.60
2018-07-24T16:42:12.539Z,55.90
2018-07-24T16:44:42.152Z,56.10
2018-07-24T16:47:12.209Z,56.40
2018-07-24T16:49:41.375Z,56.10
2018-07-24T16:52:10.424Z,56.10
2018-07-24T16:54:39.462Z,56.20
2018-07-24T16:57:18.082Z,55.10
2018-07-24T16:59:47.046Z,53.90
2018-07-24T17:02:16.034Z,52.30
2018-07-24T17:04:45.065Z,51.90
2018-07-24T17:07:14.097Z,50.90
2018-07-24T17:09:43.172Z,50.30
2018-07-24T17:12:12.272Z,50.00
2018-07-24T17:14:41.155Z,50.30
2018-07-24T17:17:10.221Z,51.30
2018-07-24T17:19:39.414Z,52.30
2018-07-24T17:22:08.497Z,53.00
2018-07-24T17:24:37.561Z,53.50
2018-07-24T17:27:07.131Z,53.10
2018-07-24T17:29:36.252Z,53.70
2018-07-24T17:32:05.224Z,54.60
2018-07-24T17:34:34.925Z,55.40
2018-07-24T17:37:04.035Z,56.10
2018-07-24T17:39:32.952Z,56.70
2018-07-24T17:42:02.163Z,56.40
2018-07-24T17:47:15.279Z,55.60
2018-07-24T17:49:44.363Z,55.60
2018-07-24T17:52:14.770Z,56.30
2018-07-24T17:54:43.650Z,56.70
2018-07-24T17:57:13.634Z,57.20
2018-07-24T17:59:43.260Z,58.10
2018-07-24T18:02:12.294Z,58.70
2018-07-24T18:04:43.027Z,59.20
2018-07-24T18:07:12.002Z,59.70
2018-07-24T18:09:40.933Z,60.20
2018-07-24T18:12:11.549Z,60.50
2018-07-24T18:14:40.850Z,60.70
2018-07-24T18:17:10.436Z,61.40
2018-07-24T18:19:39.349Z,61.60
2018-07-24T18:22:08.547Z,61.80
2018-07-24T18:24:37.998Z,62.20
2018-07-24T18:27:07.099Z,62.50
2018-07-24T18:29:36.184Z,62.60
2018-07-24T18:32:05.358Z,62.70
2018-07-24T18:34:34.390Z,63.30
2018-07-24T18:37:03.246Z,63.60
2018-07-24T18:39:32.126Z,64.00
2018-07-24T18:42:01.059Z,64.40
2018-07-24T18:44:30.044Z,64.50
2018-07-24T18:46:59.484Z,64.80
2018-07-24T18:49:28.488Z,65.10
2018-07-24T18:51:57.473Z,65.20
2018-07-24T18:54:26.561Z,65.20
2018-07-24T18:56:56.255Z,65.30
2018-07-24T18:59:25.668Z,66.00
2018-07-24T19:01:54.577Z,66.00
2018-07-24T19:04:23.610Z,65.80
2018-07-24T19:06:52.495Z,65.60
2018-07-24T19:09:21.717Z,66.00
2018-07-24T19:11:50.522Z,66.40
2018-07-24T19:14:19.296Z,66.60
2018-07-24T19:16:48.158Z,66.90
2018-07-24T19:19:16.969Z,67.10
2018-07-24T19:21:45.873Z,67.00
2018-07-24T19:24:14.688Z,66.90
2018-07-24T19:26:43.500Z,67.20
2018-07-24T19:29:12.581Z,67.30
2018-07-24T19:31:41.562Z,67.30
2018-07-24T19:34:10.432Z,67.10
2018-07-24T19:36:39.724Z,67.30
2018-07-24T19:39:11.493Z,67.60
2018-07-24T19:41:41.811Z,67.80
2018-07-24T19:44:10.858Z,67.90
2018-07-24T19:46:39.984Z,68.00
2018-07-24T19:49:09.138Z,67.80
2018-07-24T19:51:38.113Z,68.10
2018-07-24T19:54:07.027Z,68.00
2018-07-24T19:56:35.966Z,67.80
2018-07-24T19:59:05.671Z,67.70
2018-07-24T20:01:34.759Z,67.70
2018-07-24T20:04:03.792Z,68.10
2018-07-24T20:06:35.780Z,67.60
2018-07-24T20:09:07.290Z,67.60
2018-07-24T20:11:36.234Z,67.60
2018-07-24T20:14:05.226Z,68.00
2018-07-24T20:16:34.148Z,67.60
2018-07-24T20:19:02.885Z,67.80
2018-07-24T20:21:31.770Z,67.80
2018-07-24T20:24:00.625Z,67.70
2018-07-24T20:26:29.690Z,67.80
2018-07-24T20:28:58.862Z,68.00
2018-07-24T20:31:28.181Z,68.10
2018-07-24T20:33:57.127Z,68.20
2018-07-24T20:36:26.118Z,68.00
2018-07-24T20:38:55.039Z,68.00
2018-07-24T20:41:24.033Z,68.20
2018-07-24T20:43:52.882Z,68.50
2018-07-24T20:46:23.068Z,68.60
2018-07-24T20:48:52.961Z,68.10
2018-07-24T20:51:21.788Z,68.30
2018-07-24T20:53:50.582Z,68.50
2018-07-24T20:56:19.603Z,68.30
2018-07-24T20:58:48.383Z,68.50
2018-07-24T21:01:17.355Z,68.40
2018-07-24T21:03:46.318Z,68.30
2018-07-24T21:06:15.218Z,68.20
2018-07-24T21:08:44.076Z,67.90
2018-07-24T21:11:12.887Z,67.90
2018-07-24T21:13:41.857Z,67.80
2018-07-24T21:16:10.838Z,67.90
2018-07-24T21:18:39.793Z,67.90
2018-07-24T21:21:08.664Z,68.10
2018-07-24T21:23:37.581Z,68.00
2018-07-24T21:26:06.497Z,68.00
2018-07-24T21:28:35.809Z,68.10
2018-07-24T21:31:04.852Z,67.90
2018-07-24T21:33:33.874Z,67.80
2018-07-24T21:36:02.748Z,68.10
2018-07-24T21:38:31.878Z,67.70
2018-07-24T21:41:00.860Z,67.70
2018-07-24T21:43:29.857Z,67.90
2018-07-24T21:45:58.698Z,68.10
2018-07-24T21:48:27.630Z,68.20
2018-07-24T21:50:56.699Z,68.10
2018-07-24T21:53:25.584Z,68.20
2018-07-24T21:55:54.493Z,68.60
2018-07-24T21:58:23.386Z,68.70
2018-07-24T22:00:58.405Z,68.60
2018-07-24T22:03:27.456Z,68.70
2018-07-24T22:05:56.438Z,68.80
2018-07-24T22:08:25.338Z,69.10
2018-07-24T22:10:54.257Z,69.30
2018-07-24T22:13:23.054Z,69.50
2018-07-24T22:15:55.812Z,69.50
2018-07-24T22:18:24.806Z,69.40
2018-07-24T22:20:53.706Z,69.40
2018-07-24T22:23:22.615Z,69.50
2018-07-24T22:25:51.675Z,69.80
2018-07-24T22:28:20.590Z,70.10
2018-07-24T22:30:49.490Z,70.40
2018-07-24T22:33:18.260Z,70.60
2018-07-24T22:35:47.213Z,70.60
2018-07-24T22:38:16.053Z,70.70
2018-07-24T22:40:44.841Z,70.80
2018-07-24T22:43:13.886Z,71.10
2018-07-24T22:45:42.918Z,71.30
2018-07-24T22:48:11.919Z,71.70
2018-07-24T22:50:40.990Z,72.00
2018-07-24T22:53:09.850Z,72.40
2018-07-24T22:55:38.850Z,72.90
2018-07-24T22:58:07.791Z,73.30
2018-07-24T23:00:36.675Z,73.40
2018-07-24T23:03:05.710Z,73.50
2018-07-24T23:05:34.549Z,73.70
2018-07-24T23:08:03.393Z,74.00
2018-07-24T23:10:32.895Z,74.00
2018-07-24T23:13:03.607Z,74.10
2018-07-24T23:15:32.564Z,74.20
2018-07-24T23:18:01.701Z,74.30
2018-07-24T23:20:30.734Z,74.30
2018-07-24T23:23:00.007Z,73.70
2018-07-24T23:25:28.953Z,73.30
2018-07-24T23:27:57.814Z,73.20
2018-07-24T23:30:26.758Z,73.20
2018-07-24T23:32:55.668Z,73.20
2018-07-24T23:35:24.466Z,73.20
2018-07-24T23:37:53.528Z,73.10
2018-07-24T23:40:22.393Z,73.40
2018-07-24T23:42:51.228Z,73.50
2018-07-24T23:45:20.099Z,74.40
2018-07-24T23:47:49.006Z,74.60
2018-07-24T23:50:17.828Z,74.90
2018-07-24T23:52:46.597Z,75.20
2018-07-24T23:55:15.536Z,75.30
2018-07-24T23:57:44.416Z,75.50
